Time;durP1;ratioP1;P1;durP2;ratioP2;P2;SDS_P1;SDS_P2;PMS_P1;PMS_P2;Temp;Humidity;BMP_temperature;BMP_pressure;BME280_temperature;BME280_humidity;BME280_pressure;Samples;Min_cycle;Max_cycle;Signal;HPM_P1;HPM_P2
2022/03/03 00:01:02;;;;;;;21.80;15.23;;;0.00;99.90;;;0.79;89.42;-19753.66;5094235;28;20198;-60
2022/03/03 00:03:30;;;;;;;23.07;15.93;;;0.00;99.90;;;0.79;89.52;-19753.66;5094285;28;20464;-60
2022/03/03 00:05:58;;;;;;;20.77;15.00;;;0.00;99.90;;;0.58;90.53;-19746.47;5093579;28;20227;-61
2022/03/03 00:08:26;;;;;;;21.13;14.73;;;0.00;99.90;;;0.54;92.45;-19745.13;5093568;28;20231;-60
2022/03/03 00:10:57;;;;;;;25.23;16.20;;;0.00;99.90;;;0.63;92.86;-19748.38;5093643;28;20233;-59
2022/03/03 00:13:26;;;;;;;21.43;15.67;;;0.00;99.90;;;0.60;92.98;-19747.34;5093071;28;20323;-58
2022/03/03 00:15:54;;;;;;;22.43;15.17;;;0.00;99.90;;;0.54;93.75;-19745.13;5093537;28;20298;-59
2022/03/03 00:18:23;;;;;;;21.43;15.13;;;-0.10;99.90;;;0.53;93.99;-19744.94;5093154;28;20599;-60
2022/03/03 00:20:51;;;;;;;22.83;16.80;;;-0.10;99.90;;;0.71;92.22;-19751.09;5093453;28;20234;-60
2022/03/03 00:23:18;;;;;;;21.40;15.67;;;-0.10;99.90;;;0.83;90.09;-19755.03;5093373;28;20231;-61
2022/03/03 00:25:47;;;;;;;22.93;16.13;;;0.00;99.90;;;0.87;89.68;-19756.56;5093420;28;20223;-59
2022/03/03 00:28:15;;;;;;;22.30;15.47;;;0.00;99.90;;;0.88;90.02;-19756.91;5093078;28;20670;-60
2022/03/03 00:30:44;;;;;;;24.10;16.13;;;0.00;99.90;;;0.80;90.62;-19754.00;5093608;28;20312;-60
2022/03/03 00:33:12;;;;;;;24.13;16.50;;;0.10;99.90;;;0.79;91.72;-19753.84;5092966;28;20323;-59
2022/03/03 00:35:40;;;;;;;29.20;20.50;;;0.00;99.90;;;0.87;90.58;-19756.41;5092871;28;20311;-58
2022/03/03 00:38:09;;;;;;;30.67;22.63;;;0.10;99.90;;;0.88;91.34;-19756.75;5092950;28;20228;-60
2022/03/03 00:40:38;;;;;;;36.70;27.50;;;0.10;99.90;;;0.94;90.78;-19758.97;5092613;28;20783;-58
2022/03/03 00:43:08;;;;;;;40.23;32.40;;;0.10;99.90;;;0.74;91.92;-19752.13;5092767;28;20243;-59
2022/03/03 00:45:37;;;;;;;42.80;32.97;;;0.00;99.90;;;0.85;92.48;-19755.88;5093323;28;20206;-60
2022/03/03 00:48:07;;;;;;;39.43;31.90;;;0.00;99.90;;;0.88;92.84;-19756.91;5092710;28;20318;-58
2022/03/03 00:50:36;;;;;;;37.07;29.20;;;0.00;99.90;;;0.76;94.21;-19752.66;5092231;28;20231;-57
2022/03/03 00:53:04;;;;;;;30.87;23.83;;;0.00;99.90;;;0.76;94.78;-19752.81;5092817;28;20312;-59
2022/03/03 00:55:32;;;;;;;29.77;23.67;;;0.00;99.90;;;0.79;95.01;-19753.84;5092782;28;20223;-60
2022/03/03 00:58:00;;;;;;;50.93;43.17;;;0.00;99.90;;;0.74;94.88;-19752.13;5092611;28;20246;-60
2022/03/03 01:00:28;;;;;;;50.47;42.57;;;-0.10;99.90;;;0.68;95.02;-19750.06;5093304;28;20198;-60
2022/03/03 01:02:57;;;;;;;33.93;25.80;;;-0.10;99.90;;;0.77;94.78;-19753.16;5092740;28;20239;-60
2022/03/03 01:05:26;;;;;;;27.47;19.50;;;-0.10;99.90;;;0.63;95.80;-19748.38;5092433;28;20252;-58
2022/03/03 01:07:55;;;;;;;27.57;19.30;;;-0.10;99.90;;;0.61;95.38;-19747.69;5092568;28;20747;-60
2022/03/03 01:10:23;;;;;;;25.27;17.80;;;-0.10;99.90;;;0.68;95.37;-19750.06;5092334;28;20307;-60
2022/03/03 01:12:51;;;;;;;24.30;18.60;;;-0.10;99.90;;;0.81;94.50;-19754.53;5092822;28;20278;-59
2022/03/03 01:15:19;;;;;;;24.23;17.90;;;-0.10;99.90;;;0.62;95.52;-19748.03;5092275;28;20310;-60
2022/03/03 01:17:47;;;;;;;23.03;16.70;;;-0.10;99.90;;;0.30;97.42;-19736.91;5092358;28;20315;-58
2022/03/03 01:20:15;;;;;;;24.90;18.90;;;-0.20;99.90;;;0.26;100.00;-19735.72;5092117;28;20227;-60
2022/03/03 01:22:44;;;;;;;24.80;17.60;;;-0.20;99.90;;;0.24;100.00;-19735.03;5092529;28;20254;-60
2022/03/03 01:25:12;;;;;;;25.87;18.83;;;-0.30;99.90;;;0.36;100.00;-19738.97;5092440;28;20196;-60
2022/03/03 01:27:40;;;;;;;24.13;17.33;;;-0.30;99.90;;;0.45;100.00;-19742.22;5092546;28;20214;-60
2022/03/03 01:30:10;;;;;;;26.60;18.63;;;-0.30;99.90;;;0.47;100.00;-19742.72;5091941;28;20234;-60
2022/03/03 01:32:38;;;;;;;25.03;18.03;;;-0.30;99.90;;;0.47;100.00;-19742.91;5091861;28;20737;-60
2022/03/03 01:35:08;;;;;;;27.70;18.90;;;-0.30;99.90;;;0.42;100.00;-19741.00;5091886;28;20246;-60
2022/03/03 01:37:36;;;;;;;26.63;18.93;;;-0.30;99.90;;;0.37;100.00;-19739.47;5092093;28;20303;-58
2022/03/03 01:40:08;;;;;;;26.97;18.67;;;-0.30;99.90;;;0.39;100.00;-19740.16;5092228;28;20205;-60
2022/03/03 01:42:36;;;;;;;25.60;18.40;;;-0.40;99.90;;;0.22;100.00;-19734.19;5092304;28;20269;-60
2022/03/03 01:45:06;;;;;;;29.33;19.17;;;-0.40;99.90;;;0.32;98.04;-19737.78;5091649;28;20310;-58
2022/03/03 01:47:34;;;;;;;26.37;17.70;;;-0.40;99.90;;;0.19;98.42;-19733.31;5091918;28;20262;-60
2022/03/03 01:50:04;;;;;;;24.17;17.17;;;-0.40;99.90;;;0.19;98.74;-19733.16;5091473;28;20237;-60
2022/03/03 01:52:32;;;;;;;26.83;18.80;;;-0.40;99.90;;;0.21;98.57;-19733.84;5091803;28;20313;-60
2022/03/03 01:55:01;;;;;;;28.70;18.63;;;-0.50;99.90;;;0.64;95.66;-19748.53;5091747;28;20238;-60
2022/03/03 01:57:31;;;;;;;26.50;17.70;;;-0.30;99.90;;;0.41;96.30;-19740.84;5092349;28;20563;-59
2022/03/03 01:59:59;;;;;;;26.20;18.77;;;-0.30;99.90;;;0.24;97.98;-19734.88;5091709;28;20318;-59
2022/03/03 02:02:29;;;;;;;28.23;18.20;;;-0.30;99.90;;;0.25;99.68;-19735.38;5091751;28;20225;-58
2022/03/03 02:04:57;;;;;;;26.30;18.63;;;-0.40;99.90;;;0.26;98.90;-19735.53;5091217;28;20746;-59
2022/03/03 02:07:25;;;;;;;24.80;18.60;;;-0.40;99.90;;;0.09;100.00;-19729.91;5091312;28;20224;-61
2022/03/03 02:09:54;;;;;;;29.27;19.03;;;-0.50;99.90;;;0.22;100.00;-19734.19;5092252;28;20211;-59
2022/03/03 02:12:21;;;;;;;26.97;19.23;;;-0.50;99.90;;;0.30;99.14;-19736.91;5091010;28;20238;-61
2022/03/03 02:14:52;;;;;;;24.60;17.83;;;-0.50;99.90;;;0.43;97.50;-19741.34;5091345;28;20307;-59
2022/03/03 02:17:20;;;;;;;24.43;18.20;;;-0.50;99.90;;;0.17;98.16;-19732.47;5091028;28;20233;-60
2022/03/03 02:19:48;;;;;;;27.60;19.90;;;-0.50;99.90;;;-0.02;99.92;-19726.16;5091379;28;20302;-62
2022/03/03 02:22:17;;;;;;;24.33;18.93;;;-0.60;99.90;;;-0.12;100.00;-19722.72;5091489;28;20200;-60
2022/03/03 02:24:46;;;;;;;26.27;19.63;;;-0.60;99.90;;;-0.01;100.00;-19726.47;5091964;28;20239;-60
2022/03/03 02:27:14;;;;;;;27.13;19.07;;;-0.60;99.90;;;-0.05;100.00;-19725.13;5091139;28;20314;-60
2022/03/03 02:29:42;;;;;;;29.93;20.93;;;-0.70;99.90;;;-0.22;100.00;-19719.47;5091165;28;20310;-58
2022/03/03 02:32:10;;;;;;;29.67;24.10;;;-0.80;99.90;;;-0.08;100.00;-19724.25;5091065;28;20330;-59
2022/03/03 02:34:38;;;;;;;33.00;24.83;;;-0.70;99.90;;;-0.04;100.00;-19725.47;5090907;28;20247;-60
2022/03/03 02:37:06;;;;;;;33.00;25.77;;;-0.80;99.90;;;-0.15;100.00;-19721.88;5090535;28;20404;-60
2022/03/03 02:39:35;;;;;;;38.10;31.20;;;-0.70;99.90;;;-0.05;100.00;-19725.28;5091787;28;20276;-60
2022/03/03 02:42:04;;;;;;;37.60;30.13;;;-0.80;99.90;;;-0.09;100.00;-19723.91;5090585;28;20231;-59
2022/03/03 02:44:32;;;;;;;36.23;29.83;;;-0.70;99.90;;;-0.13;100.00;-19722.56;5090829;28;20788;-58
2022/03/03 02:47:00;;;;;;;30.63;24.47;;;-0.80;99.90;;;-0.08;100.00;-19724.09;5090783;28;20222;-61
2022/03/03 02:49:29;;;;;;;32.20;24.63;;;-0.80;99.90;;;0.00;100.00;-19727.00;5090642;28;20613;-60
2022/03/03 02:51:57;;;;;;;31.60;23.20;;;-0.70;99.90;;;0.00;100.00;-19727.00;5091127;28;20242;-59
2022/03/03 02:54:25;;;;;;;31.67;24.13;;;-0.70;99.90;;;-0.03;100.00;-19725.97;5091222;28;20843;-58
2022/03/03 02:59:40;;;;;;;30.10;22.43;;;-0.80;99.90;;;-0.22;100.00;-19719.31;5090850;28;20230;-60
2022/03/03 03:02:08;;;;;;;31.60;22.33;;;-0.80;99.90;;;-0.25;100.00;-19718.44;5090686;28;20327;-59
2022/03/03 03:04:37;;;;;;;32.20;22.90;;;-0.90;99.90;;;-0.41;100.00;-19712.97;5090244;28;20223;-58
2022/03/03 03:07:05;;;;;;;29.63;23.03;;;-0.90;99.90;;;-0.39;100.00;-19713.50;5090786;28;20635;-59
2022/03/03 03:09:33;;;;;;;29.70;21.77;;;-1.00;99.90;;;-0.49;100.00;-19710.06;5091487;28;20286;-58
2022/03/03 03:12:04;;;;;;;28.13;20.30;;;-1.00;99.90;;;-0.25;100.00;-19718.44;5090313;28;20771;-61
2022/03/03 03:14:32;;;;;;;24.90;17.90;;;-1.00;99.90;;;-0.01;100.00;-19726.66;5090820;28;20305;-59
2022/03/03 03:17:00;;;;;;;25.83;17.23;;;-0.90;99.90;;;0.18;96.32;-19732.97;5090989;28;20570;-58
2022/03/03 03:19:28;;;;;;;27.30;21.30;;;-0.80;99.90;;;0.17;97.94;-19732.63;5090804;28;20247;-58
2022/03/03 03:21:56;;;;;;;28.53;20.40;;;-0.70;99.90;;;0.01;99.51;-19727.16;5090930;28;20203;-57
2022/03/03 03:24:24;;;;;;;27.80;21.63;;;-0.70;99.90;;;-0.07;100.00;-19724.59;5090533;28;20221;-59
2022/03/03 03:26:52;;;;;;;28.63;22.37;;;-0.70;99.90;;;-0.33;100.00;-19715.72;5090203;28;20655;-60
2022/03/03 03:29:21;;;;;;;26.90;19.90;;;-0.80;99.90;;;-0.45;100.00;-19711.59;5090576;28;20241;-60
2022/03/03 03:31:49;;;;;;;29.07;20.37;;;-0.90;99.90;;;-0.51;100.00;-19709.56;5090139;28;20881;-59
2022/03/03 03:34:17;;;;;;;27.77;20.43;;;-1.00;99.90;;;-0.49;100.00;-19710.06;5090462;28;20710;-59
2022/03/03 03:36:45;;;;;;;27.83;19.83;;;-1.00;99.90;;;-0.62;100.00;-19705.78;5090970;28;20548;-58
2022/03/03 03:39:13;;;;;;;27.43;19.23;;;-1.10;99.90;;;-0.44;100.00;-19711.94;5090283;28;20260;-59
2022/03/03 03:41:43;;;;;;;27.37;18.70;;;-1.10;99.90;;;-0.39;100.00;-19713.50;5089992;28;20228;-60
2022/03/03 03:44:11;;;;;;;25.07;18.10;;;-1.10;99.90;;;-0.38;100.00;-19714.00;5090435;28;20259;-60
2022/03/03 03:46:41;;;;;;;27.83;19.30;;;-1.10;99.90;;;-0.21;100.00;-19719.81;5090105;28;20231;-59
2022/03/03 03:49:09;;;;;;;25.27;18.33;;;-1.00;99.90;;;-0.30;100.00;-19716.56;5090570;28;20666;-61
2022/03/03 03:51:37;;;;;;;27.30;19.40;;;-1.00;99.90;;;-0.27;100.00;-19717.75;5094373;28;20300;-60
2022/03/03 03:54:05;;;;;;;24.87;17.97;;;-1.00;99.90;;;-0.53;100.00;-19708.69;5093532;28;20233;-59
2022/03/03 03:56:33;;;;;;;26.90;19.47;;;-1.00;99.90;;;-0.60;100.00;-19706.31;5093841;28;20242;-58
2022/03/03 03:59:01;;;;;;;29.47;19.63;;;-1.10;99.90;;;-0.68;100.00;-19703.56;5093553;28;20230;-60
2022/03/03 04:01:31;;;;;;;29.50;21.60;;;-1.20;99.90;;;-0.61;100.00;-19705.97;5093628;28;20276;-61
2022/03/03 04:04:00;;;;;;;28.27;19.20;;;-1.20;99.90;;;-0.70;100.00;-19702.88;5094093;28;20192;-60
2022/03/03 04:06:28;;;;;;;25.57;19.03;;;-1.20;99.90;;;-0.68;100.00;-19703.56;5094410;28;20565;-60
2022/03/03 04:08:56;;;;;;;28.53;20.50;;;-1.20;99.90;;;-0.59;100.00;-19706.66;5093582;28;20308;-60
2022/03/03 04:11:24;;;;;;;25.47;18.47;;;-1.20;99.90;;;-0.65;100.00;-19704.78;5093746;28;20232;-61
2022/03/03 04:13:52;;;;;;;29.77;19.70;;;-1.20;99.90;;;-0.69;100.00;-19703.22;5093490;28;20253;-60
2022/03/03 04:16:20;;;;;;;29.23;20.10;;;-1.30;99.90;;;-0.46;100.00;-19711.09;5093390;28;20702;-59
2022/03/03 04:18:48;;;;;;;28.53;21.07;;;-1.30;99.90;;;-0.33;100.00;-19715.53;5094047;28;20209;-58
2022/03/03 04:21:18;;;;;;;28.13;20.17;;;-1.20;99.90;;;-0.45;100.00;-19711.44;5093170;28;20236;-60
2022/03/03 04:23:46;;;;;;;24.90;19.03;;;-1.20;99.90;;;-0.21;100.00;-19719.81;5093241;28;20260;-60
2022/03/03 04:26:14;;;;;;;27.03;19.27;;;-1.10;99.90;;;-0.19;100.00;-19720.31;5093302;28;20755;-59
2022/03/03 04:28:42;;;;;;;29.17;19.63;;;-1.10;99.90;;;-0.15;100.00;-19721.88;5093221;28;20220;-60
2022/03/03 04:31:10;;;;;;;24.63;18.97;;;-1.00;99.90;;;-0.25;100.00;-19718.28;5092935;28;20545;-58
2022/03/03 04:33:38;;;;;;;30.23;20.33;;;-1.00;99.90;;;-0.19;100.00;-19720.31;5093248;28;20223;-61
2022/03/03 04:36:07;;;;;;;28.90;20.90;;;-1.00;99.90;;;-0.35;100.00;-19715.03;5092802;28;20704;-60
2022/03/03 04:38:36;;;;;;;28.30;20.03;;;-1.00;99.90;;;-0.29;100.00;-19717.06;5092945;28;20770;-62
2022/03/03 04:41:04;;;;;;;29.17;20.97;;;-1.10;99.90;;;-0.35;100.00;-19714.84;5093176;28;20227;-60
2022/03/03 04:43:32;;;;;;;30.10;21.53;;;-1.10;99.90;;;-0.34;100.00;-19715.19;5093011;28;20345;-58
2022/03/03 04:46:00;;;;;;;29.17;21.80;;;-1.10;99.90;;;-0.56;100.00;-19707.84;5092949;28;20296;-59
2022/03/03 04:48:29;;;;;;;33.47;24.43;;;-1.20;99.90;;;-0.48;100.00;-19710.59;5093168;28;20296;-59
2022/03/03 04:50:58;;;;;;;33.50;23.90;;;-1.20;99.90;;;-0.39;100.00;-19713.66;5092650;28;20224;-59
2022/03/03 04:53:28;;;;;;;31.43;23.33;;;-1.20;99.90;;;-0.49;100.00;-19710.25;5092670;28;20319;-59
2022/03/03 04:55:58;;;;;;;32.70;22.60;;;-1.20;99.90;;;-0.47;100.00;-19710.91;5092629;28;20223;-59
2022/03/03 04:58:26;;;;;;;31.60;22.20;;;-1.20;99.90;;;-0.21;100.00;-19719.81;5092685;28;20270;-60
2022/03/03 05:00:55;;;;;;;32.10;21.90;;;-1.10;99.90;;;-0.45;100.00;-19711.59;5093042;28;20214;-59
2022/03/03 05:03:23;;;;;;;33.40;23.00;;;-1.20;99.90;;;-0.48;100.00;-19710.41;5092988;28;20248;-58
2022/03/03 05:05:51;;;;;;;31.17;21.60;;;-1.20;99.90;;;-0.46;100.00;-19711.09;5092526;28;20237;-60
2022/03/03 05:08:19;;;;;;;33.73;22.20;;;-1.20;99.90;;;-0.36;100.00;-19714.50;5092517;28;20249;-58
2022/03/03 05:10:47;;;;;;;29.97;23.10;;;-1.20;99.90;;;-0.28;100.00;-19717.41;5092808;28;20578;-57
2022/03/03 05:13:16;;;;;;;33.70;24.57;;;-1.20;99.90;;;-0.36;100.00;-19714.69;5092131;28;20322;-59
2022/03/03 05:15:44;;;;;;;31.80;23.73;;;-1.20;99.90;;;-0.48;100.00;-19710.59;5093099;28;20210;-58
2022/03/03 05:18:12;;;;;;;33.13;23.63;;;-1.20;99.90;;;-0.40;100.00;-19713.31;5092196;28;20231;-59
2022/03/03 05:20:40;;;;;;;34.37;22.30;;;-1.20;99.90;;;-0.59;100.00;-19706.81;5092271;28;20240;-59
2022/03/03 05:23:09;;;;;;;33.53;24.10;;;-1.30;99.90;;;-0.73;100.00;-19702.03;5092267;28;20235;-59
2022/03/03 05:25:37;;;;;;;36.73;23.97;;;-1.30;99.90;;;-0.54;100.00;-19708.53;5091864;28;20785;-60
2022/03/03 05:28:05;;;;;;;35.37;24.23;;;-1.30;99.90;;;-0.42;100.00;-19712.63;5091999;28;20676;-60
2022/03/03 05:30:34;;;;;;;32.83;24.07;;;-1.30;99.90;;;-0.55;100.00;-19708.00;5092473;28;20737;-59
2022/03/03 05:33:07;;;;;;;39.43;30.83;;;-1.30;99.90;;;-0.51;100.00;-19709.56;5092017;28;20661;-60
2022/03/03 05:35:35;;;;;;;34.43;24.57;;;-1.30;99.90;;;-0.65;100.00;-19704.59;5091988;28;20593;-59
2022/03/03 05:38:04;;;;;;;37.97;26.10;;;-1.40;99.90;;;-0.68;100.00;-19703.75;5092014;28;20229;-57
2022/03/03 05:40:32;;;;;;;35.27;25.63;;;-1.40;99.90;;;-0.69;100.00;-19703.22;5092007;28;20309;-59
2022/03/03 05:43:00;;;;;;;33.10;23.70;;;-1.40;99.90;;;-0.67;100.00;-19704.09;5091720;28;20724;-58
2022/03/03 05:45:29;;;;;;;35.47;23.80;;;-1.50;99.90;;;-0.80;100.00;-19699.63;5092457;28;20201;-60
2022/03/03 05:47:58;;;;;;;41.37;28.20;;;-1.50;99.90;;;-0.83;100.00;-19698.59;5091551;28;20575;-59
2022/03/03 05:50:26;;;;;;;33.57;25.63;;;-1.50;99.90;;;-0.68;100.00;-19703.75;5091179;28;20314;-59
2022/03/03 05:52:55;;;;;;;38.43;24.53;;;-1.50;99.90;;;-0.73;100.00;-19702.03;5091116;28;20222;-58
2022/03/03 05:55:23;;;;;;;36.17;22.90;;;-1.50;99.90;;;-0.76;100.00;-19701.00;5091468;28;20244;-58
2022/03/03 05:57:55;;;;;;;32.10;22.17;;;-1.50;99.90;;;-0.78;100.00;-19700.31;5092076;28;20203;-59
2022/03/03 06:00:26;;;;;;;33.00;22.13;;;-1.50;99.90;;;-0.67;100.00;-19703.91;5091493;28;20203;-59
2022/03/03 06:02:55;;;;;;;38.80;22.47;;;-1.50;99.90;;;-0.69;100.00;-19703.41;5091277;28;20225;-59
2022/03/03 06:05:28;;;;;;;31.80;21.63;;;-1.50;99.90;;;-0.70;100.00;-19702.88;5091243;28;20305;-59
2022/03/03 06:08:04;;;;;;;33.07;21.93;;;-1.50;99.90;;;-0.59;100.00;-19706.81;5091571;28;20333;-57
2022/03/03 06:10:35;;;;;;;34.17;23.03;;;-1.40;99.90;;;-0.70;100.00;-19702.88;5090992;28;20739;-60
2022/03/03 06:13:17;;;;;;;33.50;24.37;;;-1.40;99.90;;;-0.76;100.00;-19700.84;5090380;28;20287;-59
2022/03/03 06:15:48;;;;;;;36.23;25.60;;;-1.50;99.90;;;-0.66;100.00;-19704.44;5091567;28;20198;-59
2022/03/03 06:18:16;;;;;;;36.73;24.57;;;-1.40;99.90;;;-0.62;100.00;-19705.78;5090832;28;20689;-59
2022/03/03 06:20:46;;;;;;;35.40;24.23;;;-1.40;99.90;;;-0.51;100.00;-19709.56;5090651;28;20244;-59
2022/03/03 06:23:14;;;;;;;34.63;22.90;;;-1.30;99.90;;;-0.54;100.00;-19708.53;5090950;28;20307;-60
2022/03/03 06:25:43;;;;;;;31.43;22.40;;;-1.30;99.90;;;-0.42;100.00;-19712.47;5091029;28;20316;-60
2022/03/03 06:28:12;;;;;;;33.03;23.07;;;-1.30;99.90;;;-0.45;100.00;-19711.59;5090791;28;20204;-59
2022/03/03 06:30:40;;;;;;;40.40;28.13;;;-1.20;99.90;;;-0.41;100.00;-19712.81;5091315;28;20232;-59
2022/03/03 06:33:09;;;;;;;43.70;29.97;;;-1.20;99.90;;;-0.30;100.00;-19716.75;5090546;28;20266;-60
2022/03/03 06:35:38;;;;;;;42.13;28.73;;;-1.10;99.90;;;-0.24;100.00;-19718.78;5090397;28;20658;-60
2022/03/03 06:38:08;;;;;;;44.23;33.17;;;-1.00;99.90;;;-0.25;100.00;-19718.44;5090466;28;20332;-58
2022/03/03 06:40:36;;;;;;;44.97;33.40;;;-1.00;99.90;;;-0.27;100.00;-19717.75;5090373;28;20307;-59
2022/03/03 06:43:05;;;;;;;45.60;35.53;;;-1.00;99.90;;;-0.04;100.00;-19725.47;5090647;28;20311;-60
2022/03/03 06:45:34;;;;;;;43.27;33.30;;;-0.90;99.90;;;0.11;100.00;-19730.41;5091144;28;20231;-59
2022/03/03 06:48:05;;;;;;;46.67;33.73;;;-0.80;99.90;;;0.28;100.00;-19736.41;5090359;28;20306;-59
2022/03/03 06:50:37;;;;;;;40.27;30.43;;;-0.60;99.90;;;0.08;100.00;-19729.38;5089861;28;20307;-57
2022/03/03 06:53:08;;;;;;;45.20;33.03;;;-0.60;99.90;;;0.14;100.00;-19731.44;5090649;28;20747;-60
2022/03/03 06:55:38;;;;;;;34.77;25.53;;;-0.60;99.90;;;0.21;100.00;-19734.00;5090740;28;20308;-59
2022/03/03 06:58:06;;;;;;;33.90;23.70;;;-0.50;99.90;;;0.23;100.00;-19734.69;5090864;28;20292;-60
2022/03/03 07:00:35;;;;;;;29.57;20.97;;;-0.50;99.90;;;0.22;100.00;-19734.34;5091186;28;20213;-60
2022/03/03 07:03:05;;;;;;;30.00;20.97;;;-0.50;99.90;;;0.28;100.00;-19736.22;5090417;28;20781;-60
2022/03/03 07:05:34;;;;;;;32.80;20.77;;;-0.40;99.90;;;0.50;100.00;-19743.75;5090158;28;20231;-59
2022/03/03 07:08:02;;;;;;;29.67;21.07;;;-0.40;99.90;;;0.35;100.00;-19738.63;5090325;28;20223;-60
2022/03/03 07:10:32;;;;;;;32.23;21.87;;;-0.30;99.90;;;0.51;100.00;-19744.25;5090365;28;20295;-60
2022/03/03 07:13:00;;;;;;;29.80;20.30;;;-0.20;99.90;;;0.48;100.00;-19743.25;5090321;28;20196;-60
2022/03/03 07:15:28;;;;;;;29.97;20.50;;;-0.20;99.90;;;0.53;100.00;-19744.94;5091219;28;20235;-59
2022/03/03 07:18:12;;;;;;;29.43;20.40;;;-0.20;99.90;;;0.63;100.00;-19748.38;5090288;28;20311;-61
2022/03/03 07:20:54;;;;;;;28.37;20.53;;;-0.10;99.90;;;0.88;100.00;-19756.75;5090146;28;20234;-59
2022/03/03 07:23:36;;;;;;;28.37;20.07;;;0.00;99.90;;;0.85;100.00;-19755.88;5091605;28;20314;-59
2022/03/03 07:26:09;;;;;;;31.03;21.07;;;0.10;99.90;;;1.02;100.00;-19761.53;5094618;28;20251;-59
2022/03/03 07:28:45;;;;;;;32.60;21.17;;;0.20;99.90;;;1.07;100.00;-19763.41;5094794;28;20439;-60
2022/03/03 07:31:20;;;;;;;27.27;19.07;;;0.30;99.90;;;1.21;100.00;-19768.03;5094920;28;20282;-59
2022/03/03 07:33:55;;;;;;;27.20;19.73;;;0.40;99.90;;;1.29;100.00;-19770.75;5094845;28;20613;-60
2022/03/03 07:36:27;;;;;;;29.67;20.60;;;0.50;99.90;;;1.49;100.00;-19777.59;5094745;28;20276;-59
2022/03/03 07:38:59;;;;;;;28.63;20.50;;;0.60;99.90;;;1.60;100.00;-19781.38;5094409;28;20284;-60
2022/03/03 07:41:29;;;;;;;30.30;20.90;;;0.70;99.90;;;1.67;100.00;-19783.59;5094236;28;20248;-60
2022/03/03 07:44:00;;;;;;;32.90;24.20;;;0.80;99.90;;;1.70;100.00;-19784.78;5094022;28;20230;-60
2022/03/03 07:46:29;;;;;;;33.30;24.40;;;0.90;99.90;;;1.76;99.97;-19786.66;5093838;28;20228;-59
2022/03/03 07:48:58;;;;;;;29.97;21.90;;;1.00;99.90;;;1.98;98.17;-19794.34;5094520;28;20228;-58
2022/03/03 07:51:27;;;;;;;29.67;20.60;;;1.10;99.90;;;2.12;95.54;-19799.16;5092576;28;20220;-59
2022/03/03 07:53:55;;;;;;;29.37;20.10;;;1.20;99.90;;;2.24;93.89;-19803.25;5093317;28;20773;-59
2022/03/03 07:56:29;;;;;;;30.63;19.97;;;1.30;99.90;;;2.45;90.90;-19810.25;5093475;28;20234;-55
2022/03/03 07:59:04;;;;;;;25.03;17.87;;;1.50;99.90;;;2.39;89.71;-19808.19;5093380;28;20282;-59
2022/03/03 08:01:36;;;;;;;26.93;20.37;;;1.50;99.90;;;2.46;89.67;-19810.78;5044661;28;20307;-58
2022/03/03 08:04:05;;;;;;;29.40;20.77;;;1.60;99.90;;;2.44;91.10;-19810.09;5080228;28;20227;-57
2022/03/03 08:06:34;;;;;;;25.97;19.57;;;1.60;99.90;;;2.52;89.95;-19812.66;5088420;28;20201;-59
2022/03/03 08:09:02;;;;;;;27.73;19.97;;;1.60;99.90;;;2.56;90.70;-19813.84;5092527;28;20333;-58
2022/03/03 08:11:36;;;;;;;27.17;20.47;;;1.70;99.90;;;2.72;89.42;-19819.50;5073094;28;20304;-56
2022/03/03 08:14:04;;;;;;;29.60;18.70;;;1.70;99.90;;;2.90;86.30;-19825.47;5073020;28;20246;-57
2022/03/03 08:16:38;;;;;;;29.87;21.47;;;1.90;99.90;;;3.01;86.59;-19829.22;5073717;28;20279;-56
2022/03/03 08:19:07;;;;;;;28.97;20.23;;;2.00;99.90;;;3.12;83.02;-19833.16;5093137;28;20240;-57
2022/03/03 08:21:37;;;;;;;27.27;18.93;;;2.10;99.90;;;3.37;81.87;-19841.72;5093236;28;20238;-56
2022/03/03 08:24:06;;;;;;;27.67;19.13;;;2.20;99.90;;;3.27;80.91;-19838.13;5093538;28;20203;-59
2022/03/03 08:26:37;;;;;;;28.03;19.50;;;2.30;99.90;;;3.47;80.59;-19845.13;5093067;28;20655;-58
2022/03/03 08:29:05;;;;;;;28.13;18.37;;;2.30;99.90;;;3.42;80.23;-19843.41;5092993;28;20345;-56
2022/03/03 08:31:38;;;;;;;25.13;18.50;;;2.40;99.90;;;3.46;80.50;-19844.78;5093064;28;20307;-58
2022/03/03 08:34:16;;;;;;;27.20;19.17;;;2.50;99.90;;;3.62;80.87;-19850.09;5092977;28;20252;-59
2022/03/03 08:36:49;;;;;;;23.50;17.93;;;2.70;99.90;;;3.77;79.10;-19855.22;5073507;28;20223;-59
2022/03/03 08:39:21;;;;;;;25.30;18.77;;;2.70;99.90;;;3.82;78.59;-19856.94;5073137;28;20222;-60
2022/03/03 08:41:55;;;;;;;25.53;17.97;;;2.80;99.90;;;4.04;77.37;-19864.44;5072640;28;20231;-59
2022/03/03 08:44:44;;;;;;;23.47;17.80;;;2.90;99.90;;;4.22;76.47;-19870.44;5072432;28;20232;-59
2022/03/03 08:47:15;;;;;;;24.57;17.83;;;3.10;99.90;;;4.26;76.25;-19871.97;5072490;28;20227;-60
2022/03/03 08:49:45;;;;;;;25.47;19.43;;;3.20;99.90;;;4.37;76.51;-19875.56;5072193;28;20619;-60
2022/03/03 08:52:13;;;;;;;27.03;18.47;;;3.40;99.90;;;4.55;73.54;-19881.72;5072735;28;20319;-55
2022/03/03 08:54:41;;;;;;;26.47;18.73;;;3.40;99.90;;;4.59;74.16;-19883.06;5072142;28;20205;-60
2022/03/03 08:57:10;;;;;;;24.80;18.70;;;3.40;99.90;;;4.66;74.04;-19885.47;5072557;28;20215;-58
2022/03/03 08:59:38;;;;;;;26.73;19.00;;;3.50;99.90;;;4.84;73.16;-19891.63;5072442;28;20229;-58
2022/03/03 09:02:08;;;;;;;28.03;19.23;;;3.70;99.90;;;4.98;73.03;-19896.59;5071964;28;20240;-58
2022/03/03 09:04:36;;;;;;;27.10;18.27;;;3.80;99.90;;;5.25;70.28;-19905.47;5072022;28;20244;-56
2022/03/03 09:07:04;;;;;;;25.77;18.17;;;4.00;99.90;;;5.29;69.92;-19907.00;5071591;28;20656;-60
2022/03/03 09:09:33;;;;;;;23.40;18.27;;;4.00;99.90;;;5.29;70.94;-19906.84;5079489;28;20287;-60
2022/03/03 09:12:06;;;;;;;23.50;18.00;;;4.10;99.90;;;5.42;70.49;-19911.28;5092395;28;20213;-53
2022/03/03 09:14:36;;;;;;;24.33;18.50;;;4.20;99.90;;;5.33;70.42;-19908.38;5092090;28;20228;-58
2022/03/03 09:17:04;;;;;;;24.67;17.83;;;4.20;99.90;;;5.48;70.19;-19913.34;5091842;28;20337;-59
2022/03/03 09:19:32;;;;;;;25.57;17.93;;;4.30;99.90;;;5.61;70.64;-19917.94;5092000;28;20243;-56
2022/03/03 09:22:00;;;;;;;25.27;18.17;;;4.50;99.90;;;5.75;70.67;-19922.56;5091846;28;20256;-55
2022/03/03 09:24:28;;;;;;;24.87;18.20;;;4.60;99.90;;;6.15;67.47;-19936.25;5091644;28;20246;-60
2022/03/03 09:26:56;;;;;;;22.87;17.50;;;4.80;99.90;;;5.97;67.94;-19930.09;5092244;28;20224;-58
2022/03/03 09:29:26;;;;;;;20.47;16.60;;;4.80;99.90;;;6.11;67.02;-19934.88;5091870;28;20231;-57
2022/03/03 09:31:55;;;;;;;21.73;16.57;;;4.80;99.90;;;6.21;66.42;-19938.28;5091676;28;20232;-59
2022/03/03 09:34:23;;;;;;;22.87;17.27;;;5.00;99.90;;;6.32;64.78;-19941.88;5092004;28;20229;-61
2022/03/03 09:36:51;;;;;;;24.40;17.73;;;5.00;99.90;;;6.35;64.57;-19943.06;5091291;28;20233;-58
2022/03/03 09:39:20;;;;;;;23.17;17.07;;;5.10;99.90;;;6.34;65.60;-19942.56;5092373;28;20354;-60
2022/03/03 09:41:48;;;;;;;23.07;16.80;;;5.10;99.90;;;6.36;63.78;-19943.25;5091238;28;20223;-59
2022/03/03 09:44:21;;;;;;;21.93;16.37;;;5.20;99.90;;;6.44;63.46;-19945.97;5091663;28;20721;-59
2022/03/03 09:46:49;;;;;;;19.73;15.50;;;5.20;99.90;;;6.50;64.27;-19948.03;5090140;28;20769;-61
2022/03/03 09:49:20;;;;;;;24.57;17.67;;;5.30;99.90;;;6.42;64.82;-19945.28;5091747;28;20260;-60
2022/03/03 09:51:50;;;;;;;20.87;16.13;;;5.20;99.90;;;6.47;63.72;-19947.19;5090849;28;20289;-60
2022/03/03 09:54:18;;;;;;;21.70;16.40;;;5.30;99.90;;;6.75;62.39;-19956.75;5091759;28;20293;-59
2022/03/03 09:56:46;;;;;;;23.77;17.40;;;5.40;99.90;;;6.73;62.01;-19956.06;5090594;28;20289;-59
2022/03/03 09:59:15;;;;;;;21.53;16.00;;;5.50;99.90;;;6.92;60.16;-19962.38;5091345;28;20761;-59
2022/03/03 10:01:46;;;;;;;19.97;15.33;;;5.60;99.90;;;6.93;59.70;-19962.91;5091042;28;20788;-61
2022/03/03 10:04:20;;;;;;;22.37;16.33;;;5.60;99.90;;;6.80;60.29;-19958.28;5091320;28;20234;-54
2022/03/03 10:06:50;;;;;;;19.90;15.20;;;5.60;99.90;;;6.95;58.83;-19963.41;5090600;28;20261;-60
2022/03/03 10:09:19;;;;;;;23.03;16.50;;;5.70;99.90;;;6.87;59.47;-19960.66;5091264;28;20194;-55
2022/03/03 10:12:02;;;;;;;23.43;16.80;;;5.70;99.90;;;7.07;59.90;-19967.50;5090652;28;20223;-61
2022/03/03 10:14:32;;;;;;;23.53;16.60;;;5.80;99.90;;;7.12;58.19;-19969.38;5090829;28;20237;-54